Durango, CO

3:11 PM MDT on May 29, 2015 (GMT -0600)
Pagosa Springs | | Change Station
CLOSE
Current Station
Airport
Location: Pagosa Springs,
Elevation: 7657 ft
Nearby Weather Stations

Elev 7657 ft 37.29 °N, 107.06 °W | Updated 16 minutes ago

Partly Cloudy
Partly Cloudy
68 °F
Feels Like 68 °F
N
10
Wind Variable Wind from SSW
Gusts 22 mph

Today
High -- | Low -- °F
--% Chance of Precip.
Yesterday
High -- | Low -- °F
Precip. -- in
5:53 AM 8:24 PM
Waxing Gibbous, 86% visible
Pressure 30.23 in
Visibility 10.0 miles
Clouds Scattered Clouds 9000 ft
Mostly Cloudy 12000 ft
Dew Point 20 °F
Humidity 16%
Rainfall 0.00 in
Snow Depth Not available.
UV 6 out of 12
Pollen 6.00 out of 12
Air Quality Not available.
Flu Activity Sporadic
METAR KPSO 292055Z AUTO 21009G19KT 10SM SCT090 BKN120 20/M07 A3023 RMK AO2 T02001067

More Conditions Fewer Conditions

Pressure 30.23 in
Visibility 10.0 miles
Clouds Scattered Clouds 9000 ft
Mostly Cloudy 12000 ft
Dew Point 20 °F
Humidity 16%
Rainfall 0.00 in
Snow Depth Not available.
UV 6 out of 12
Pollen 6.00 out of 12
Air Quality Not available.
Flu Activity Sporadic
METAR KPSO 292055Z AUTO 21009G19KT 10SM SCT090 BKN120 20/M07 A3023 RMK AO2 T02001067

More Conditions Fewer Conditions

10-Day Weather Forecast

Almanac

Astronomy

May. 29, 2015 Rise Set
Actual Time
Civil Twilight
Nautical Twilight
Astronomical Twilight
Moon
Length of Visible Light
Length of Day
Tomorrow will be .
, % of the Moon is Illuminated

Today's Extremes

State Highs State Lows

Community

WunderPhotos

Upload Photos

1,825,359 photos uploaded!

WunderBlogs® & News

Nearby

Air Quality

  Air Quality AQ Index Pollutant
Not available.

Snow Depth

Station Depth Elevation

Earthquake Activity

City Distance Mag. Time & Date
Minimum magnitude displayed is 2.5.

Coastal Water Temperatures

Place Temperature

Stations

Nearby Weather Stations

Station Location Temp. Windchill Dew Point Humidity Wind Precip. Elev Updated Type